sensor_id;sensor_type;location;lat;lon;timestamp;temperature;humidity
1978;DHT22;989;53.016;8.346;2022-10-23T00:01:27;10.40;99.90
1978;DHT22;989;53.016;8.346;2022-10-23T00:04:07;10.30;99.90
1978;DHT22;989;53.016;8.346;2022-10-23T00:06:37;10.20;99.90
1978;DHT22;989;53.016;8.346;2022-10-23T00:09:06;10.20;99.90
1978;DHT22;989;53.016;8.346;2022-10-23T00:11:33;10.20;99.90
1978;DHT22;989;53.016;8.346;2022-10-23T00:14:01;10.10;99.90
1978;DHT22;989;53.016;8.346;2022-10-23T00:16:28;10.20;99.90
1978;DHT22;989;53.016;8.346;2022-10-23T00:18:54;10.20;99.90
1978;DHT22;989;53.016;8.346;2022-10-23T00:21:21;10.10;99.90
1978;DHT22;989;53.016;8.346;2022-10-23T00:23:47;10.10;99.90
1978;DHT22;989;53.016;8.346;2022-10-23T00:26:13;10.00;99.90
1978;DHT22;989;53.016;8.346;2022-10-23T00:28:41;10.10;99.90
1978;DHT22;989;53.016;8.346;2022-10-23T00:31:14;10.20;99.90
1978;DHT22;989;53.016;8.346;2022-10-23T00:33:41;10.30;99.90
1978;DHT22;989;53.016;8.346;2022-10-23T00:36:08;10.30;99.90
1978;DHT22;989;53.016;8.346;2022-10-23T00:38:36;10.20;99.90
1978;DHT22;989;53.016;8.346;2022-10-23T00:41:02;10.30;99.90
1978;DHT22;989;53.016;8.346;2022-10-23T00:43:29;10.30;99.90
1978;DHT22;989;53.016;8.346;2022-10-23T00:45:56;10.20;99.90
1978;DHT22;989;53.016;8.346;2022-10-23T00:48:22;10.30;99.90
1978;DHT22;989;53.016;8.346;2022-10-23T00:50:50;10.20;99.90
1978;DHT22;989;53.016;8.346;2022-10-23T00:53:18;10.20;99.90
1978;DHT22;989;53.016;8.346;2022-10-23T00:55:46;10.20;99.90
1978;DHT22;989;53.016;8.346;2022-10-23T00:58:16;10.20;99.90
1978;DHT22;989;53.016;8.346;2022-10-23T01:00:47;10.10;99.90
1978;DHT22;989;53.016;8.346;2022-10-23T01:03:18;10.10;99.90
1978;DHT22;989;53.016;8.346;2022-10-23T01:06:07;10.00;99.90
1978;DHT22;989;53.016;8.346;2022-10-23T01:08:55;9.90;99.90
1978;DHT22;989;53.016;8.346;2022-10-23T01:11:35;9.90;99.90
1978;DHT22;989;53.016;8.346;2022-10-23T01:14:09;10.00;99.90
1978;DHT22;989;53.016;8.346;2022-10-23T01:17:15;10.10;99.90
1978;DHT22;989;53.016;8.346;2022-10-23T01:20:28;10.00;99.90
1978;DHT22;989;53.016;8.346;2022-10-23T01:25:58;10.00;99.90
1978;DHT22;989;53.016;8.346;2022-10-23T01:31:42;10.00;99.90
1978;DHT22;989;53.016;8.346;2022-10-23T01:34:15;10.00;99.90
1978;DHT22;989;53.016;8.346;2022-10-23T01:36:46;9.90;99.90
1978;DHT22;989;53.016;8.346;2022-10-23T01:39:26;10.00;99.90
1978;DHT22;989;53.016;8.346;2022-10-23T01:42:02;10.00;99.90
1978;DHT22;989;53.016;8.346;2022-10-23T01:44:43;10.10;99.90
1978;DHT22;989;53.016;8.346;2022-10-23T01:47:13;10.00;99.90
1978;DHT22;989;53.016;8.346;2022-10-23T01:49:41;9.90;99.90
1978;DHT22;989;53.016;8.346;2022-10-23T01:52:10;9.90;99.90
1978;DHT22;989;53.016;8.346;2022-10-23T01:54:40;9.90;99.90
1978;DHT22;989;53.016;8.346;2022-10-23T01:57:13;10.00;99.90
1978;DHT22;989;53.016;8.346;2022-10-23T01:59:50;10.00;99.90
1978;DHT22;989;53.016;8.346;2022-10-23T02:02:19;9.80;99.90
1978;DHT22;989;53.016;8.346;2022-10-23T02:04:52;9.80;99.90
1978;DHT22;989;53.016;8.346;2022-10-23T02:07:23;9.70;99.90
1978;DHT22;989;53.016;8.346;2022-10-23T02:09:49;9.60;99.90
1978;DHT22;989;53.016;8.346;2022-10-23T02:12:34;9.60;99.90
1978;DHT22;989;53.016;8.346;2022-10-23T02:15:31;9.50;99.90
1978;DHT22;989;53.016;8.346;2022-10-23T02:18:07;9.50;99.90
1978;DHT22;989;53.016;8.346;2022-10-23T02:20:54;9.60;99.90
1978;DHT22;989;53.016;8.346;2022-10-23T02:23:33;9.60;99.90
1978;DHT22;989;53.016;8.346;2022-10-23T02:26:15;9.60;99.90
1978;DHT22;989;53.016;8.346;2022-10-23T02:28:48;9.50;99.90
1978;DHT22;989;53.016;8.346;2022-10-23T02:31:20;9.50;99.90
1978;DHT22;989;53.016;8.346;2022-10-23T02:33:47;9.50;99.90
1978;DHT22;989;53.016;8.346;2022-10-23T02:36:13;9.40;99.90
1978;DHT22;989;53.016;8.346;2022-10-23T02:38:42;9.40;99.90
1978;DHT22;989;53.016;8.346;2022-10-23T02:47:20;9.40;99.90
1978;DHT22;989;53.016;8.346;2022-10-23T02:58:46;9.40;99.90
1978;DHT22;989;53.016;8.346;2022-10-23T03:01:25;9.40;99.90
1978;DHT22;989;53.016;8.346;2022-10-23T03:03:56;9.50;99.90
1978;DHT22;989;53.016;8.346;2022-10-23T03:06:24;9.70;99.90
1978;DHT22;989;53.016;8.346;2022-10-23T03:08:53;9.90;99.90
1978;DHT22;989;53.016;8.346;2022-10-23T03:11:23;10.20;99.90
1978;DHT22;989;53.016;8.346;2022-10-23T03:13:48;10.30;99.90
1978;DHT22;989;53.016;8.346;2022-10-23T03:16:14;10.40;99.90
1978;DHT22;989;53.016;8.346;2022-10-23T03:18:40;10.40;99.90
1978;DHT22;989;53.016;8.346;2022-10-23T03:21:06;10.40;99.90
1978;DHT22;989;53.016;8.346;2022-10-23T03:23:31;10.30;99.90
1978;DHT22;989;53.016;8.346;2022-10-23T03:25:57;10.30;99.90
1978;DHT22;989;53.016;8.346;2022-10-23T03:28:23;10.30;99.90
1978;DHT22;989;53.016;8.346;2022-10-23T03:30:48;10.20;99.90
1978;DHT22;989;53.016;8.346;2022-10-23T03:33:14;10.00;99.90
1978;DHT22;989;53.016;8.346;2022-10-23T03:35:40;10.00;99.90
1978;DHT22;989;53.016;8.346;2022-10-23T03:38:05;9.90;99.90
1978;DHT22;989;53.016;8.346;2022-10-23T03:40:31;9.90;99.90
1978;DHT22;989;53.016;8.346;2022-10-23T03:42:57;9.80;99.90
1978;DHT22;989;53.016;8.346;2022-10-23T03:45:23;9.70;99.90
1978;DHT22;989;53.016;8.346;2022-10-23T03:47:49;9.70;99.90
1978;DHT22;989;53.016;8.346;2022-10-23T03:50:16;10.00;99.90
1978;DHT22;989;53.016;8.346;2022-10-23T03:52:43;10.20;99.90
1978;DHT22;989;53.016;8.346;2022-10-23T03:55:09;10.40;99.90
1978;DHT22;989;53.016;8.346;2022-10-23T03:57:36;10.40;99.90
1978;DHT22;989;53.016;8.346;2022-10-23T04:00:03;10.40;99.90
1978;DHT22;989;53.016;8.346;2022-10-23T04:02:31;10.40;99.90
1978;DHT22;989;53.016;8.346;2022-10-23T04:04:56;10.30;99.90
1978;DHT22;989;53.016;8.346;2022-10-23T04:07:22;10.20;99.90
1978;DHT22;989;53.016;8.346;2022-10-23T04:09:48;10.20;99.90
1978;DHT22;989;53.016;8.346;2022-10-23T04:12:14;10.10;99.90
1978;DHT22;989;53.016;8.346;2022-10-23T04:14:39;10.00;99.90
1978;DHT22;989;53.016;8.346;2022-10-23T04:17:05;10.00;99.90
1978;DHT22;989;53.016;8.346;2022-10-23T04:19:30;10.00;99.90
1978;DHT22;989;53.016;8.346;2022-10-23T04:21:56;9.90;99.90
1978;DHT22;989;53.016;8.346;2022-10-23T04:24:23;9.90;99.90
1978;DHT22;989;53.016;8.346;2022-10-23T04:26:49;9.90;99.90
1978;DHT22;989;53.016;8.346;2022-10-23T04:29:15;9.90;99.90
1978;DHT22;989;53.016;8.346;2022-10-23T04:31:41;9.80;99.90
1978;DHT22;989;53.016;8.346;2022-10-23T04:34:06;9.80;99.90
1978;DHT22;989;53.016;8.346;2022-10-23T04:36:32;9.70;99.90
1978;DHT22;989;53.016;8.346;2022-10-23T04:38:58;9.70;99.90
1978;DHT22;989;53.016;8.346;2022-10-23T04:41:23;9.60;99.90
1978;DHT22;989;53.016;8.346;2022-10-23T04:43:49;9.70;99.90
1978;DHT22;989;53.016;8.346;2022-10-23T04:46:15;9.60;99.90
1978;DHT22;989;53.016;8.346;2022-10-23T04:48:40;9.80;99.90
1978;DHT22;989;53.016;8.346;2022-10-23T04:51:06;9.70;99.90
1978;DHT22;989;53.016;8.346;2022-10-23T04:53:32;9.60;99.90
1978;DHT22;989;53.016;8.346;2022-10-23T04:55:59;9.60;99.90
1978;DHT22;989;53.016;8.346;2022-10-23T04:58:26;9.60;99.90
1978;DHT22;989;53.016;8.346;2022-10-23T05:00:53;9.60;99.90
1978;DHT22;989;53.016;8.346;2022-10-23T05:03:20;9.70;99.90
1978;DHT22;989;53.016;8.346;2022-10-23T05:05:46;9.70;99.90
1978;DHT22;989;53.016;8.346;2022-10-23T05:08:12;9.70;99.90
1978;DHT22;989;53.016;8.346;2022-10-23T05:10:38;9.70;99.90
1978;DHT22;989;53.016;8.346;2022-10-23T05:13:06;9.60;99.90
1978;DHT22;989;53.016;8.346;2022-10-23T05:15:31;9.60;99.90
1978;DHT22;989;53.016;8.346;2022-10-23T05:18:01;9.70;99.90
1978;DHT22;989;53.016;8.346;2022-10-23T05:20:33;9.80;99.90
1978;DHT22;989;53.016;8.346;2022-10-23T05:23:01;9.70;99.90
1978;DHT22;989;53.016;8.346;2022-10-23T05:25:29;9.80;99.90
1978;DHT22;989;53.016;8.346;2022-10-23T05:27:55;9.80;99.90
1978;DHT22;989;53.016;8.346;2022-10-23T05:30:20;9.80;99.90
1978;DHT22;989;53.016;8.346;2022-10-23T05:32:46;9.90;99.90
1978;DHT22;989;53.016;8.346;2022-10-23T05:35:15;9.90;99.90
1978;DHT22;989;53.016;8.346;2022-10-23T05:37:44;9.90;99.90
1978;DHT22;989;53.016;8.346;2022-10-23T05:40:11;9.90;99.90
1978;DHT22;989;53.016;8.346;2022-10-23T05:42:37;9.90;99.90
1978;DHT22;989;53.016;8.346;2022-10-23T05:45:03;10.00;99.90
1978;DHT22;989;53.016;8.346;2022-10-23T05:47:29;10.00;99.90
1978;DHT22;989;53.016;8.346;2022-10-23T05:49:56;10.00;99.90
1978;DHT22;989;53.016;8.346;2022-10-23T05:52:22;10.00;99.90
1978;DHT22;989;53.016;8.346;2022-10-23T05:54:50;9.90;99.90
1978;DHT22;989;53.016;8.346;2022-10-23T05:57:17;9.90;99.90
1978;DHT22;989;53.016;8.346;2022-10-23T05:59:43;10.00;99.90
1978;DHT22;989;53.016;8.346;2022-10-23T06:02:09;9.90;99.90
1978;DHT22;989;53.016;8.346;2022-10-23T06:04:35;10.00;99.90
1978;DHT22;989;53.016;8.346;2022-10-23T06:07:04;10.00;99.90
1978;DHT22;989;53.016;8.346;2022-10-23T06:09:29;10.10;99.90
1978;DHT22;989;53.016;8.346;2022-10-23T06:11:55;10.00;99.90
1978;DHT22;989;53.016;8.346;2022-10-23T06:14:21;10.00;99.90
1978;DHT22;989;53.016;8.346;2022-10-23T06:16:46;10.00;99.90
1978;DHT22;989;53.016;8.346;2022-10-23T06:19:12;10.00;99.90
1978;DHT22;989;53.016;8.346;2022-10-23T06:21:38;10.00;99.90
1978;DHT22;989;53.016;8.346;2022-10-23T06:24:06;10.00;99.90
1978;DHT22;989;53.016;8.346;2022-10-23T06:26:32;10.10;99.90
1978;DHT22;989;53.016;8.346;2022-10-23T06:28:58;10.20;99.90
1978;DHT22;989;53.016;8.346;2022-10-23T06:31:25;10.20;99.90
1978;DHT22;989;53.016;8.346;2022-10-23T06:33:53;10.20;99.90
1978;DHT22;989;53.016;8.346;2022-10-23T06:36:20;10.20;99.90
1978;DHT22;989;53.016;8.346;2022-10-23T06:38:46;10.20;99.90
1978;DHT22;989;53.016;8.346;2022-10-23T06:41:16;10.20;99.90
1978;DHT22;989;53.016;8.346;2022-10-23T06:43:49;10.20;99.90
1978;DHT22;989;53.016;8.346;2022-10-23T06:46:16;10.20;99.90
1978;DHT22;989;53.016;8.346;2022-10-23T06:48:43;10.30;99.90
1978;DHT22;989;53.016;8.346;2022-10-23T06:51:11;10.30;99.90
1978;DHT22;989;53.016;8.346;2022-10-23T06:53:39;10.40;99.90
1978;DHT22;989;53.016;8.346;2022-10-23T06:56:06;10.40;99.90
1978;DHT22;989;53.016;8.346;2022-10-23T06:58:34;10.60;99.90
1978;DHT22;989;53.016;8.346;2022-10-23T07:01:02;10.70;99.90
1978;DHT22;989;53.016;8.346;2022-10-23T07:03:30;10.70;99.90
1978;DHT22;989;53.016;8.346;2022-10-23T07:06:02;10.90;99.90
1978;DHT22;989;53.016;8.346;2022-10-23T07:08:29;11.00;99.90
1978;DHT22;989;53.016;8.346;2022-10-23T07:10:55;11.00;99.90
1978;DHT22;989;53.016;8.346;2022-10-23T07:13:21;11.10;99.90
1978;DHT22;989;53.016;8.346;2022-10-23T07:15:48;11.20;99.90
1978;DHT22;989;53.016;8.346;2022-10-23T07:18:14;11.20;99.90
1978;DHT22;989;53.016;8.346;2022-10-23T07:20:41;11.20;99.90
1978;DHT22;989;53.016;8.346;2022-10-23T07:23:10;11.30;99.90
1978;DHT22;989;53.016;8.346;2022-10-23T07:25:36;11.30;99.90
1978;DHT22;989;53.016;8.346;2022-10-23T07:28:06;11.40;99.90
1978;DHT22;989;53.016;8.346;2022-10-23T07:30:31;11.50;99.90
1978;DHT22;989;53.016;8.346;2022-10-23T07:32:57;11.50;99.90
1978;DHT22;989;53.016;8.346;2022-10-23T07:35:23;11.60;99.90
1978;DHT22;989;53.016;8.346;2022-10-23T07:37:48;11.60;99.90
1978;DHT22;989;53.016;8.346;2022-10-23T07:40:14;11.70;99.90
1978;DHT22;989;53.016;8.346;2022-10-23T07:42:41;11.70;99.90
1978;DHT22;989;53.016;8.346;2022-10-23T07:45:07;11.70;99.90
1978;DHT22;989;53.016;8.346;2022-10-23T07:47:34;11.70;99.90
1978;DHT22;989;53.016;8.346;2022-10-23T07:50:00;11.70;99.90
1978;DHT22;989;53.016;8.346;2022-10-23T07:52:25;11.90;99.90
1978;DHT22;989;53.016;8.346;2022-10-23T07:54:51;11.80;99.90
1978;DHT22;989;53.016;8.346;2022-10-23T07:57:18;11.80;99.90
1978;DHT22;989;53.016;8.346;2022-10-23T07:59:44;11.90;99.90
1978;DHT22;989;53.016;8.346;2022-10-23T08:02:14;12.00;99.90
1978;DHT22;989;53.016;8.346;2022-10-23T08:04:40;12.10;99.90
1978;DHT22;989;53.016;8.346;2022-10-23T08:07:06;12.00;99.90
1978;DHT22;989;53.016;8.346;2022-10-23T08:09:31;12.00;99.90
1978;DHT22;989;53.016;8.346;2022-10-23T08:11:59;12.10;99.90
1978;DHT22;989;53.016;8.346;2022-10-23T08:14:26;12.10;99.90
1978;DHT22;989;53.016;8.346;2022-10-23T08:16:52;12.20;99.90
1978;DHT22;989;53.016;8.346;2022-10-23T08:19:17;12.20;99.90
1978;DHT22;989;53.016;8.346;2022-10-23T08:21:43;12.20;99.90
1978;DHT22;989;53.016;8.346;2022-10-23T08:24:10;12.30;99.90
1978;DHT22;989;53.016;8.346;2022-10-23T08:26:39;12.40;99.90
1978;DHT22;989;53.016;8.346;2022-10-23T08:29:05;12.50;99.90
1978;DHT22;989;53.016;8.346;2022-10-23T08:31:30;12.60;99.90
1978;DHT22;989;53.016;8.346;2022-10-23T08:33:56;12.80;99.90
1978;DHT22;989;53.016;8.346;2022-10-23T08:36:24;12.80;99.90
1978;DHT22;989;53.016;8.346;2022-10-23T08:38:52;12.90;99.90
1978;DHT22;989;53.016;8.346;2022-10-23T08:41:34;12.90;99.90
1978;DHT22;989;53.016;8.346;2022-10-23T08:49:34;13.10;99.90
1978;DHT22;989;53.016;8.346;2022-10-23T08:55:00;13.00;99.90
1978;DHT22;989;53.016;8.346;2022-10-23T08:57:40;13.20;99.90
1978;DHT22;989;53.016;8.346;2022-10-23T09:00:13;13.30;99.90
1978;DHT22;989;53.016;8.346;2022-10-23T09:02:43;13.50;99.90
1978;DHT22;989;53.016;8.346;2022-10-23T09:11:00;14.00;99.90
1978;DHT22;989;53.016;8.346;2022-10-23T09:16:42;14.40;99.90
1978;DHT22;989;53.016;8.346;2022-10-23T09:19:19;14.40;99.90
1978;DHT22;989;53.016;8.346;2022-10-23T09:21:49;14.70;99.90
1978;DHT22;989;53.016;8.346;2022-10-23T09:24:16;14.80;99.90
1978;DHT22;989;53.016;8.346;2022-10-23T09:26:45;14.90;99.90
1978;DHT22;989;53.016;8.346;2022-10-23T09:29:34;14.90;99.90
1978;DHT22;989;53.016;8.346;2022-10-23T09:32:05;15.10;99.90
1978;DHT22;989;53.016;8.346;2022-10-23T09:34:33;15.40;99.90
1978;DHT22;989;53.016;8.346;2022-10-23T09:37:20;15.60;99.90
1978;DHT22;989;53.016;8.346;2022-10-23T09:40:01;15.70;99.90
1978;DHT22;989;53.016;8.346;2022-10-23T09:42:27;16.00;99.10
1978;DHT22;989;53.016;8.346;2022-10-23T09:44:53;16.00;93.00
1978;DHT22;989;53.016;8.346;2022-10-23T09:47:22;16.30;92.60
1978;DHT22;989;53.016;8.346;2022-10-23T09:49:51;16.20;71.40
1978;DHT22;989;53.016;8.346;2022-10-23T09:52:20;16.20;73.60
1978;DHT22;989;53.016;8.346;2022-10-23T09:54:57;16.10;70.10
1978;DHT22;989;53.016;8.346;2022-10-23T09:57:34;16.10;68.10
1978;DHT22;989;53.016;8.346;2022-10-23T10:00:21;16.00;68.30
1978;DHT22;989;53.016;8.346;2022-10-23T10:02:58;15.90;72.80
1978;DHT22;989;53.016;8.346;2022-10-23T10:05:37;16.20;82.20
1978;DHT22;989;53.016;8.346;2022-10-23T10:08:41;16.40;70.30
1978;DHT22;989;53.016;8.346;2022-10-23T10:11:25;16.30;60.90
1978;DHT22;989;53.016;8.346;2022-10-23T10:17:18;16.40;52.80
1978;DHT22;989;53.016;8.346;2022-10-23T10:20:28;16.30;59.30
1978;DHT22;989;53.016;8.346;2022-10-23T10:23:15;16.30;57.20
1978;DHT22;989;53.016;8.346;2022-10-23T10:40:44;16.60;49.20
1978;DHT22;989;53.016;8.346;2022-10-23T10:43:30;16.70;46.50
1978;DHT22;989;53.016;8.346;2022-10-23T10:46:27;16.80;35.70
1978;DHT22;989;53.016;8.346;2022-10-23T10:51:46;17.10;30.00
1978;DHT22;989;53.016;8.346;2022-10-23T10:54:38;17.20;30.40
1978;DHT22;989;53.016;8.346;2022-10-23T10:57:30;17.10;31.70
1978;DHT22;989;53.016;8.346;2022-10-23T11:00:19;17.30;25.10
1978;DHT22;989;53.016;8.346;2022-10-23T11:05:43;17.50;17.70
1978;DHT22;989;53.016;8.346;2022-10-23T11:08:20;17.50;22.60
1978;DHT22;989;53.016;8.346;2022-10-23T11:10:57;17.70;20.70
1978;DHT22;989;53.016;8.346;2022-10-23T11:13:37;17.60;18.60
1978;DHT22;989;53.016;8.346;2022-10-23T11:16:19;17.50;20.30
1978;DHT22;989;53.016;8.346;2022-10-23T11:19:26;17.50;20.30
1978;DHT22;989;53.016;8.346;2022-10-23T11:28:10;17.80;16.60
1978;DHT22;989;53.016;8.346;2022-10-23T11:31:18;17.80;17.60
1978;DHT22;989;53.016;8.346;2022-10-23T11:36:54;17.90;16.40
1978;DHT22;989;53.016;8.346;2022-10-23T11:39:30;18.00;11.80
1978;DHT22;989;53.016;8.346;2022-10-23T11:42:10;18.40;10.70
1978;DHT22;989;53.016;8.346;2022-10-23T11:44:51;18.60;5.60
1978;DHT22;989;53.016;8.346;2022-10-23T11:47:36;18.40;5.40
1978;DHT22;989;53.016;8.346;2022-10-23T11:52:51;18.10;7.20
1978;DHT22;989;53.016;8.346;2022-10-23T11:55:22;18.00;10.40
1978;DHT22;989;53.016;8.346;2022-10-23T12:03:53;18.70;1.00
1978;DHT22;989;53.016;8.346;2022-10-23T12:06:40;18.80;1.00
1978;DHT22;989;53.016;8.346;2022-10-23T12:09:44;19.20;1.00
1978;DHT22;989;53.016;8.346;2022-10-23T12:14:40;19.70;1.00
1978;DHT22;989;53.016;8.346;2022-10-23T12:17:37;19.80;1.00
1978;DHT22;989;53.016;8.346;2022-10-23T12:25:38;18.50;1.00
1978;DHT22;989;53.016;8.346;2022-10-23T12:33:53;18.60;3.90
1978;DHT22;989;53.016;8.346;2022-10-23T12:37:00;18.70;1.00
1978;DHT22;989;53.016;8.346;2022-10-23T12:39:53;18.50;1.00
1978;DHT22;989;53.016;8.346;2022-10-23T12:42:23;18.20;3.20
1978;DHT22;989;53.016;8.346;2022-10-23T12:45:01;18.10;5.30
1978;DHT22;989;53.016;8.346;2022-10-23T12:47:29;18.20;2.70
1978;DHT22;989;53.016;8.346;2022-10-23T12:49:55;18.10;5.90
1978;DHT22;989;53.016;8.346;2022-10-23T12:52:20;18.30;1.50
1978;DHT22;989;53.016;8.346;2022-10-23T12:54:49;18.10;4.10
1978;DHT22;989;53.016;8.346;2022-10-23T12:57:19;18.00;10.50
1978;DHT22;989;53.016;8.346;2022-10-23T12:59:59;18.00;6.90
1978;DHT22;989;53.016;8.346;2022-10-23T13:02:30;17.90;9.50
1978;DHT22;989;53.016;8.346;2022-10-23T13:05:00;17.60;15.50
1978;DHT22;989;53.016;8.346;2022-10-23T13:07:39;17.80;19.10
1978;DHT22;989;53.016;8.346;2022-10-23T13:10:13;17.90;10.40
1978;DHT22;989;53.016;8.346;2022-10-23T13:12:40;17.70;13.00
1978;DHT22;989;53.016;8.346;2022-10-23T13:18:07;17.80;11.50
1978;DHT22;989;53.016;8.346;2022-10-23T13:20:57;17.90;12.50
1978;DHT22;989;53.016;8.346;2022-10-23T13:23:33;17.80;14.90
1978;DHT22;989;53.016;8.346;2022-10-23T13:26:32;17.60;19.90
1978;DHT22;989;53.016;8.346;2022-10-23T13:29:00;17.60;20.50
1978;DHT22;989;53.016;8.346;2022-10-23T13:31:32;17.80;18.00
1978;DHT22;989;53.016;8.346;2022-10-23T13:36:24;17.80;16.70
1978;DHT22;989;53.016;8.346;2022-10-23T13:41:27;17.80;18.20
1978;DHT22;989;53.016;8.346;2022-10-23T13:43:54;17.50;21.00
1978;DHT22;989;53.016;8.346;2022-10-23T13:46:21;17.40;21.90
1978;DHT22;989;53.016;8.346;2022-10-23T13:48:51;17.50;19.70
1978;DHT22;989;53.016;8.346;2022-10-23T13:51:22;17.50;20.40
1978;DHT22;989;53.016;8.346;2022-10-23T13:53:50;17.40;23.30
1978;DHT22;989;53.016;8.346;2022-10-23T13:56:20;17.40;25.20
1978;DHT22;989;53.016;8.346;2022-10-23T13:58:47;17.30;25.10
1978;DHT22;989;53.016;8.346;2022-10-23T14:01:22;17.30;25.90
1978;DHT22;989;53.016;8.346;2022-10-23T14:03:50;17.40;25.20
1978;DHT22;989;53.016;8.346;2022-10-23T14:06:17;17.40;24.10
1978;DHT22;989;53.016;8.346;2022-10-23T14:08:43;17.40;25.00
1978;DHT22;989;53.016;8.346;2022-10-23T14:11:13;17.30;26.20
1978;DHT22;989;53.016;8.346;2022-10-23T14:13:40;17.20;25.60
1978;DHT22;989;53.016;8.346;2022-10-23T14:16:07;17.30;29.10
1978;DHT22;989;53.016;8.346;2022-10-23T14:18:34;17.20;25.00
1978;DHT22;989;53.016;8.346;2022-10-23T14:21:01;17.20;26.60
1978;DHT22;989;53.016;8.346;2022-10-23T14:23:27;17.10;28.90
1978;DHT22;989;53.016;8.346;2022-10-23T14:25:53;17.00;30.30
1978;DHT22;989;53.016;8.346;2022-10-23T14:28:18;17.00;30.50
1978;DHT22;989;53.016;8.346;2022-10-23T14:30:44;17.00;29.80
1978;DHT22;989;53.016;8.346;2022-10-23T14:33:10;17.00;29.80
1978;DHT22;989;53.016;8.346;2022-10-23T14:35:39;17.00;31.10
1978;DHT22;989;53.016;8.346;2022-10-23T14:38:05;17.00;32.50
1978;DHT22;989;53.016;8.346;2022-10-23T14:40:31;17.00;34.90
1978;DHT22;989;53.016;8.346;2022-10-23T14:42:56;16.90;35.90
1978;DHT22;989;53.016;8.346;2022-10-23T14:45:23;16.80;35.60
1978;DHT22;989;53.016;8.346;2022-10-23T14:47:48;16.80;35.80
1978;DHT22;989;53.016;8.346;2022-10-23T14:50:14;16.80;37.30
1978;DHT22;989;53.016;8.346;2022-10-23T14:52:40;16.60;39.50
1978;DHT22;989;53.016;8.346;2022-10-23T14:55:06;16.60;41.30
1978;DHT22;989;53.016;8.346;2022-10-23T14:57:32;16.60;43.80
1978;DHT22;989;53.016;8.346;2022-10-23T14:59:58;16.60;44.20
1978;DHT22;989;53.016;8.346;2022-10-23T15:02:24;16.60;44.00
1978;DHT22;989;53.016;8.346;2022-10-23T15:04:49;16.50;44.80
1978;DHT22;989;53.016;8.346;2022-10-23T15:07:15;16.50;45.50
1978;DHT22;989;53.016;8.346;2022-10-23T15:09:40;16.40;48.00
1978;DHT22;989;53.016;8.346;2022-10-23T15:12:06;16.30;45.60
1978;DHT22;989;53.016;8.346;2022-10-23T15:14:33;16.30;48.40
1978;DHT22;989;53.016;8.346;2022-10-23T15:16:59;16.30;47.50
1978;DHT22;989;53.016;8.346;2022-10-23T15:19:24;16.20;47.20
1978;DHT22;989;53.016;8.346;2022-10-23T15:21:50;16.30;48.10
1978;DHT22;989;53.016;8.346;2022-10-23T15:24:17;16.20;47.90
1978;DHT22;989;53.016;8.346;2022-10-23T15:26:45;16.20;49.80
1978;DHT22;989;53.016;8.346;2022-10-23T15:29:12;16.10;50.20
1978;DHT22;989;53.016;8.346;2022-10-23T15:31:53;16.10;51.50
1978;DHT22;989;53.016;8.346;2022-10-23T15:34:22;16.00;52.90
1978;DHT22;989;53.016;8.346;2022-10-23T15:36:50;15.90;54.20
1978;DHT22;989;53.016;8.346;2022-10-23T15:39:20;15.80;55.00
1978;DHT22;989;53.016;8.346;2022-10-23T15:41:53;15.80;57.40
1978;DHT22;989;53.016;8.346;2022-10-23T15:44:22;15.70;58.50
1978;DHT22;989;53.016;8.346;2022-10-23T15:46:49;15.70;58.60
1978;DHT22;989;53.016;8.346;2022-10-23T15:49:17;15.70;57.30
1978;DHT22;989;53.016;8.346;2022-10-23T15:51:44;15.70;56.20
1978;DHT22;989;53.016;8.346;2022-10-23T15:54:12;15.70;56.10
1978;DHT22;989;53.016;8.346;2022-10-23T15:56:42;15.60;57.30
1978;DHT22;989;53.016;8.346;2022-10-23T15:59:08;15.60;57.50
1978;DHT22;989;53.016;8.346;2022-10-23T16:01:33;15.60;58.50
1978;DHT22;989;53.016;8.346;2022-10-23T16:03:59;15.40;60.10
1978;DHT22;989;53.016;8.346;2022-10-23T16:06:24;15.40;63.40
1978;DHT22;989;53.016;8.346;2022-10-23T16:08:50;15.40;63.80
1978;DHT22;989;53.016;8.346;2022-10-23T16:11:22;15.30;63.60
1978;DHT22;989;53.016;8.346;2022-10-23T16:13:50;15.20;65.30
1978;DHT22;989;53.016;8.346;2022-10-23T16:16:16;15.20;67.60
1978;DHT22;989;53.016;8.346;2022-10-23T16:18:43;15.20;67.20
1978;DHT22;989;53.016;8.346;2022-10-23T16:21:17;15.20;68.70
1978;DHT22;989;53.016;8.346;2022-10-23T16:23:51;15.20;68.20
1978;DHT22;989;53.016;8.346;2022-10-23T16:26:19;15.20;67.10
1978;DHT22;989;53.016;8.346;2022-10-23T16:28:45;15.20;65.00
1978;DHT22;989;53.016;8.346;2022-10-23T16:31:14;15.30;64.20
1978;DHT22;989;53.016;8.346;2022-10-23T16:33:42;15.20;63.40
1978;DHT22;989;53.016;8.346;2022-10-23T16:36:08;15.20;63.40
1978;DHT22;989;53.016;8.346;2022-10-23T16:38:34;15.20;62.80
1978;DHT22;989;53.016;8.346;2022-10-23T16:41:01;15.20;62.60
1978;DHT22;989;53.016;8.346;2022-10-23T16:43:27;15.20;62.10
1978;DHT22;989;53.016;8.346;2022-10-23T16:46:05;15.20;61.10
1978;DHT22;989;53.016;8.346;2022-10-23T16:48:33;15.30;59.80
1978;DHT22;989;53.016;8.346;2022-10-23T16:50:59;15.20;60.10
1978;DHT22;989;53.016;8.346;2022-10-23T16:53:25;15.20;61.60
1978;DHT22;989;53.016;8.346;2022-10-23T16:55:56;15.20;60.90
1978;DHT22;989;53.016;8.346;2022-10-23T16:58:26;15.20;62.00
1978;DHT22;989;53.016;8.346;2022-10-23T17:01:12;15.20;61.10
1978;DHT22;989;53.016;8.346;2022-10-23T17:03:41;15.20;60.80
1978;DHT22;989;53.016;8.346;2022-10-23T17:06:11;15.20;59.10
1978;DHT22;989;53.016;8.346;2022-10-23T17:08:38;15.20;59.40
1978;DHT22;989;53.016;8.346;2022-10-23T17:11:14;15.20;59.80
1978;DHT22;989;53.016;8.346;2022-10-23T17:13:51;15.20;61.00
1978;DHT22;989;53.016;8.346;2022-10-23T17:16:37;15.20;59.60
1978;DHT22;989;53.016;8.346;2022-10-23T17:19:07;15.20;59.20
1978;DHT22;989;53.016;8.346;2022-10-23T17:21:36;15.30;58.10
1978;DHT22;989;53.016;8.346;2022-10-23T17:24:03;15.30;54.70
1978;DHT22;989;53.016;8.346;2022-10-23T17:26:30;15.20;54.50
1978;DHT22;989;53.016;8.346;2022-10-23T17:28:56;15.20;56.00
1978;DHT22;989;53.016;8.346;2022-10-23T17:31:29;15.20;56.70
1978;DHT22;989;53.016;8.346;2022-10-23T17:33:58;15.20;56.50
1978;DHT22;989;53.016;8.346;2022-10-23T17:36:28;15.20;56.20
1978;DHT22;989;53.016;8.346;2022-10-23T17:38:55;15.10;57.70
1978;DHT22;989;53.016;8.346;2022-10-23T17:41:22;15.00;58.10
1978;DHT22;989;53.016;8.346;2022-10-23T17:43:49;14.90;59.30
1978;DHT22;989;53.016;8.346;2022-10-23T17:46:16;14.80;64.20
1978;DHT22;989;53.016;8.346;2022-10-23T17:48:43;14.70;64.70
1978;DHT22;989;53.016;8.346;2022-10-23T17:51:12;14.60;66.00
1978;DHT22;989;53.016;8.346;2022-10-23T17:53:42;14.60;68.10
1978;DHT22;989;53.016;8.346;2022-10-23T17:56:11;14.70;67.80
1978;DHT22;989;53.016;8.346;2022-10-23T17:58:38;14.70;67.40
1978;DHT22;989;53.016;8.346;2022-10-23T18:03:35;14.90;63.50
1978;DHT22;989;53.016;8.346;2022-10-23T18:08:36;15.10;56.10
1978;DHT22;989;53.016;8.346;2022-10-23T18:11:03;15.20;52.80
1978;DHT22;989;53.016;8.346;2022-10-23T18:13:34;15.20;49.40
1978;DHT22;989;53.016;8.346;2022-10-23T18:16:06;15.30;47.90
1978;DHT22;989;53.016;8.346;2022-10-23T18:18:32;15.30;44.80
1978;DHT22;989;53.016;8.346;2022-10-23T18:21:00;15.40;42.30
1978;DHT22;989;53.016;8.346;2022-10-23T18:23:27;15.40;42.20
1978;DHT22;989;53.016;8.346;2022-10-23T18:25:54;15.40;41.40
1978;DHT22;989;53.016;8.346;2022-10-23T18:28:21;15.40;43.00
1978;DHT22;989;53.016;8.346;2022-10-23T18:30:47;15.40;43.60